createdAt,value
2023-04-02T00:02:33.841Z,99.91
2023-04-02T00:07:41.540Z,98.92
2023-04-02T00:13:21.911Z,98.53
2023-04-02T00:18:26.403Z,98.55
2023-04-02T00:23:29.304Z,98.64
2023-04-02T00:28:32.086Z,99.87
2023-04-02T00:33:35.472Z,99.92
2023-04-02T00:38:43.739Z,99.71
2023-04-02T00:43:50.765Z,99.36
2023-04-02T00:49:10.708Z,99.63
2023-04-02T00:54:15.941Z,99.97
2023-04-02T00:59:54.689Z,100.00
2023-04-02T01:05:03.576Z,100.00
2023-04-02T01:10:12.559Z,100.00
2023-04-02T01:15:25.619Z,100.00
2023-04-02T01:20:54.101Z,100.00
2023-04-02T01:25:59.962Z,100.00
2023-04-02T01:31:03.914Z,100.00
2023-04-02T01:36:35.162Z,100.00
2023-04-02T01:41:53.124Z,100.00
2023-04-02T01:46:58.888Z,100.00
2023-04-02T01:52:01.871Z,100.00
2023-04-02T01:57:05.491Z,100.00
2023-04-02T02:02:13.521Z,100.00
2023-04-02T02:07:20.605Z,100.00
2023-04-02T02:12:23.448Z,100.00
2023-04-02T02:17:34.567Z,100.00
2023-04-02T02:22:39.656Z,100.00
2023-04-02T02:27:46.038Z,100.00
2023-04-02T02:33:26.222Z,100.00
2023-04-02T02:38:36.358Z,100.00
2023-04-02T02:43:42.126Z,100.00
2023-04-02T02:48:46.943Z,100.00
2023-04-02T02:53:54.127Z,100.00
2023-04-02T02:58:57.077Z,100.00
2023-04-02T03:04:00.862Z,100.00
2023-04-02T03:09:13.479Z,100.00
2023-04-02T03:14:49.255Z,100.00
2023-04-02T03:20:06.553Z,100.00
2023-04-02T03:25:32.154Z,100.00
2023-04-02T03:30:47.157Z,100.00
2023-04-02T03:35:58.224Z,100.00
2023-04-02T03:41:06.658Z,100.00
2023-04-02T03:46:24.834Z,100.00
2023-04-02T03:51:32.566Z,100.00
2023-04-02T03:56:40.482Z,100.00
2023-04-02T04:02:06.353Z,100.00
2023-04-02T04:07:31.182Z,100.00
2023-04-02T04:12:37.015Z,100.00
2023-04-02T04:18:03.409Z,100.00
2023-04-02T04:23:15.992Z,100.00
2023-04-02T04:28:44.152Z,100.00
2023-04-02T04:33:54.903Z,100.00
2023-04-02T04:39:05.711Z,100.00
2023-04-02T04:44:19.112Z,100.00
2023-04-02T04:49:43.447Z,100.00
2023-04-02T04:54:47.142Z,100.00
2023-04-02T05:00:07.376Z,100.00
2023-04-02T05:05:25.284Z,100.00
2023-04-02T05:10:45.186Z,100.00
2023-04-02T05:16:11.338Z,100.00
2023-04-02T05:21:21.779Z,100.00
2023-04-02T05:26:31.010Z,100.00
2023-04-02T05:31:56.061Z,100.00
2023-04-02T05:36:59.151Z,100.00
2023-04-02T05:42:08.412Z,100.00
2023-04-02T05:47:21.275Z,100.00
2023-04-02T05:52:30.229Z,99.98
2023-04-02T05:57:46.915Z,100.00
2023-04-02T06:03:01.074Z,99.99
2023-04-02T06:08:11.261Z,99.98
2023-04-02T06:13:18.724Z,99.73
2023-04-02T06:18:27.780Z,99.39
2023-04-02T06:24:05.558Z,99.71
2023-04-02T06:29:24.202Z,99.86
2023-04-02T06:34:29.859Z,99.85
2023-04-02T06:39:32.642Z,99.89
2023-04-02T06:44:37.650Z,99.99
2023-04-02T06:49:47.168Z,99.64
2023-04-02T06:54:50.084Z,99.66
2023-04-02T06:59:53.329Z,99.16
2023-04-02T07:05:04.659Z,99.19
2023-04-02T07:10:09.368Z,98.29
2023-04-02T07:15:19.939Z,97.86
2023-04-02T07:20:34.006Z,97.20
2023-04-02T07:25:37.064Z,97.52
2023-04-02T07:30:41.979Z,97.21
2023-04-02T07:35:46.252Z,97.45
2023-04-02T07:40:49.408Z,96.82
2023-04-02T07:45:52.257Z,97.17
2023-04-02T07:50:55.086Z,97.01
2023-04-02T07:56:01.548Z,96.83
2023-04-02T08:01:05.462Z,96.33
2023-04-02T08:06:08.569Z,95.73
2023-04-02T08:11:11.881Z,94.82
2023-04-02T08:16:14.845Z,94.90
2023-04-02T08:21:17.844Z,94.16
2023-04-02T08:26:21.182Z,93.87
2023-04-02T08:31:24.569Z,93.55
2023-04-02T08:36:31.110Z,93.63
2023-04-02T08:41:44.376Z,93.58
2023-04-02T08:47:14.504Z,93.83
2023-04-02T08:52:24.116Z,93.51
2023-04-02T08:57:36.870Z,93.02
2023-04-02T09:02:44.555Z,93.23
2023-04-02T09:07:50.861Z,92.94
2023-04-02T09:12:53.805Z,93.22
2023-04-02T09:18:17.738Z,93.05
2023-04-02T09:23:23.882Z,92.84
2023-04-02T09:28:27.719Z,92.89
2023-04-02T09:33:51.620Z,92.89
2023-04-02T09:39:06.874Z,92.26
2023-04-02T09:44:23.755Z,91.54
2023-04-02T09:49:28.737Z,90.65
2023-04-02T09:54:33.684Z,90.93
2023-04-02T09:59:37.568Z,90.05
2023-04-02T10:04:47.982Z,90.21
2023-04-02T10:10:01.990Z,89.45
2023-04-02T10:15:06.851Z,89.08
2023-04-02T10:20:23.046Z,88.00
2023-04-02T10:25:32.439Z,86.39
2023-04-02T10:30:58.428Z,86.62
2023-04-02T10:36:16.400Z,85.04
2023-04-02T10:41:40.063Z,84.38
2023-04-02T10:47:00.767Z,83.84
2023-04-02T10:52:32.169Z,83.32
2023-04-02T10:57:39.659Z,82.10
2023-04-02T11:03:02.852Z,79.65
2023-04-02T11:08:29.709Z,77.24
2023-04-02T11:13:42.389Z,76.59
2023-04-02T11:19:19.918Z,76.74
2023-04-02T11:24:43.767Z,74.38
2023-04-02T11:29:53.682Z,74.86
2023-04-02T11:35:06.639Z,73.07
2023-04-02T11:40:13.999Z,71.03
2023-04-02T11:45:28.795Z,71.04
2023-04-02T11:50:34.538Z,70.28
2023-04-02T11:55:40.668Z,68.52
2023-04-02T12:01:05.393Z,68.25
2023-04-02T12:06:14.424Z,67.89
2023-04-02T12:11:35.161Z,67.28
2023-04-02T12:16:38.343Z,66.46
2023-04-02T12:21:47.958Z,65.08
2023-04-02T12:27:16.866Z,63.80
2023-04-02T12:32:31.198Z,63.87
2023-04-02T12:37:34.244Z,64.01
2023-04-02T12:42:39.271Z,65.06
2023-04-02T12:47:45.458Z,63.55
2023-04-02T12:52:51.942Z,63.52
2023-04-02T12:57:59.261Z,62.53
2023-04-02T13:03:16.979Z,61.49
2023-04-02T13:08:27.425Z,59.81
2023-04-02T13:13:39.446Z,59.51
2023-04-02T13:18:47.695Z,59.49
2023-04-02T13:23:51.058Z,59.98
2023-04-02T13:29:01.552Z,59.57
2023-04-02T13:34:04.396Z,58.65
2023-04-02T13:39:07.512Z,57.67
2023-04-02T13:44:19.561Z,57.96
2023-04-02T13:49:24.265Z,58.10
2023-04-02T13:54:48.951Z,57.90
2023-04-02T13:59:55.205Z,56.55
2023-04-02T14:05:13.535Z,56.38
2023-04-02T14:10:30.208Z,55.90
2023-04-02T14:16:24.940Z,55.83
2023-04-02T14:21:55.107Z,56.05
2023-04-02T14:27:23.790Z,54.63
2023-04-02T14:32:50.679Z,55.79
2023-04-02T14:38:21.098Z,55.36
2023-04-02T14:43:33.034Z,54.50
2023-04-02T14:48:59.202Z,54.47
2023-04-02T14:54:09.572Z,53.83
2023-04-02T14:59:22.022Z,53.63
2023-04-02T15:04:37.357Z,53.09
2023-04-02T15:09:49.203Z,52.40
2023-04-02T15:15:39.965Z,52.49
2023-04-02T15:20:54.182Z,51.83
2023-04-02T15:26:05.980Z,51.06
2023-04-02T15:31:13.602Z,49.91
2023-04-02T15:36:22.324Z,50.34
2023-04-02T15:41:38.170Z,49.57
2023-04-02T15:46:49.301Z,49.77
2023-04-02T15:52:16.533Z,49.77
2023-04-02T15:57:47.200Z,48.37
2023-04-02T16:03:29.525Z,47.61
2023-04-02T16:08:44.263Z,47.62
2023-04-02T16:13:47.601Z,47.69
2023-04-02T16:19:16.150Z,48.15
2023-04-02T16:24:20.011Z,47.64
2023-04-02T16:29:25.525Z,47.40
2023-04-02T16:34:37.123Z,46.00
2023-04-02T16:40:18.512Z,44.65
2023-04-02T16:45:50.000Z,45.20
2023-04-02T16:51:24.291Z,44.20
2023-04-02T16:56:40.775Z,42.84
2023-04-02T17:02:02.344Z,42.26
2023-04-02T17:07:38.098Z,42.92
2023-04-02T17:12:53.043Z,44.13
2023-04-02T17:18:00.646Z,44.33
2023-04-02T17:23:05.692Z,45.19
2023-04-02T17:28:18.747Z,46.03
2023-04-02T17:33:25.105Z,47.81
2023-04-02T17:39:06.951Z,50.63
2023-04-02T17:44:32.568Z,52.69
2023-04-02T17:49:56.824Z,53.63
2023-04-02T17:55:32.333Z,54.60
2023-04-02T18:00:47.403Z,55.09
2023-04-02T18:06:08.923Z,55.88
2023-04-02T18:11:30.949Z,56.34
2023-04-02T18:16:34.037Z,57.08
2023-04-02T18:22:02.966Z,57.30
2023-04-02T18:27:32.380Z,58.10
2023-04-02T18:32:59.570Z,58.95
2023-04-02T18:38:33.076Z,59.61
2023-04-02T18:44:07.692Z,60.15
2023-04-02T18:49:19.852Z,60.61
2023-04-02T18:54:30.064Z,61.14
2023-04-02T18:59:42.610Z,61.46
2023-04-02T19:04:53.237Z,62.11
2023-04-02T19:10:07.447Z,62.37
2023-04-02T19:15:18.967Z,62.95
2023-04-02T19:20:36.696Z,63.68
2023-04-02T19:25:42.728Z,64.18
2023-04-02T19:31:11.854Z,64.77
2023-04-02T19:36:45.467Z,65.48
2023-04-02T19:42:03.366Z,66.19
2023-04-02T19:47:06.191Z,66.82
2023-04-02T19:52:08.984Z,67.28
2023-04-02T19:57:16.569Z,67.75
2023-04-02T20:02:19.345Z,68.13
2023-04-02T20:07:22.390Z,68.51
2023-04-02T20:12:25.809Z,69.16
2023-04-02T20:17:29.437Z,69.35
2023-04-02T20:22:32.265Z,69.65
2023-04-02T20:27:35.524Z,69.94
2023-04-02T20:32:38.457Z,70.16
2023-04-02T20:37:42.414Z,70.53
2023-04-02T20:42:45.416Z,70.41
2023-04-02T20:47:48.273Z,70.45
2023-04-02T20:52:51.910Z,70.68
2023-04-02T20:57:55.040Z,70.60
2023-04-02T21:03:01.441Z,70.71
2023-04-02T21:08:04.621Z,70.89
2023-04-02T21:13:07.650Z,71.29
2023-04-02T21:18:10.472Z,71.30
2023-04-02T21:23:15.495Z,71.29
2023-04-02T21:28:18.288Z,70.96
2023-04-02T21:33:21.107Z,70.67
2023-04-02T21:38:23.980Z,70.53
2023-04-02T21:43:26.786Z,70.72
2023-04-02T21:48:30.328Z,70.87
2023-04-02T21:53:33.646Z,71.61
2023-04-02T21:58:36.479Z,72.14
2023-04-02T22:03:39.888Z,72.73
2023-04-02T22:08:44.222Z,72.82
2023-04-02T22:13:48.730Z,73.26
2023-04-02T22:18:53.223Z,73.26
2023-04-02T22:23:56.550Z,73.10
2023-04-02T22:29:00.644Z,73.18
2023-04-02T22:34:05.586Z,73.02
2023-04-02T22:39:10.534Z,72.73
2023-04-02T22:44:16.495Z,71.81
2023-04-02T22:49:19.637Z,70.75
2023-04-02T22:54:22.554Z,70.73
2023-04-02T22:59:25.748Z,70.78
2023-04-02T23:04:28.474Z,70.21
2023-04-02T23:09:31.430Z,69.76
2023-04-02T23:14:34.184Z,69.59
2023-04-02T23:19:37.004Z,69.31
2023-04-02T23:24:39.729Z,69.26
2023-04-02T23:29:42.485Z,68.97
2023-04-02T23:34:45.358Z,68.68
2023-04-02T23:39:48.141Z,68.63
2023-04-02T23:44:50.979Z,68.39
2023-04-02T23:49:53.955Z,68.34
2023-04-02T23:54:56.715Z,68.04
2023-04-02T23:59:59.889Z,67.80
